Time;durP1;ratioP1;P1;durP2;ratioP2;P2;SDS_P1;SDS_P2;PMS_P1;PMS_P2;Temp;Humidity;BMP_temperature;BMP_pressure;BME280_temperature;BME280_humidity;BME280_pressure;Samples;Min_cycle;Max_cycle;Signal;HPM_P1;HPM_P2
2022/05/25 00:02:24;;;;;;;5.97;5.10;;;9.70;99.90;;;;;;4987317;28;20053;-69
2022/05/25 00:04:51;;;;;;;7.03;5.45;;;9.70;99.90;;;;;;5016794;28;20065;-69
2022/05/25 00:07:18;;;;;;;5.80;4.78;;;9.60;99.90;;;;;;5016455;28;20058;-69
2022/05/25 00:09:44;;;;;;;7.13;5.40;;;9.70;99.90;;;;;;5016959;28;20086;-69
2022/05/25 00:12:11;;;;;;;6.15;4.72;;;9.70;99.90;;;;;;5016744;28;20418;-69
2022/05/25 00:14:36;;;;;;;6.15;4.78;;;9.70;99.90;;;;;;5014949;28;20050;-70
2022/05/25 00:17:03;;;;;;;7.20;5.45;;;9.60;99.90;;;;;;5016917;28;20053;-70
2022/05/25 00:22:13;;;;;;;7.38;5.22;;;9.60;99.90;;;;;;4996254;28;20050;-69
2022/05/25 00:24:39;;;;;;;6.47;5.35;;;9.60;99.90;;;;;;5000194;28;20105;-69
2022/05/25 00:27:05;;;;;;;7.60;4.22;;;9.60;99.90;;;;;;5006594;28;20135;-69
2022/05/25 00:29:30;;;;;;;5.93;4.85;;;9.50;99.90;;;;;;4981259;28;20050;-69
2022/05/25 00:31:56;;;;;;;6.55;4.50;;;9.50;99.90;;;;;;4949875;28;20047;-70
2022/05/25 00:34:22;;;;;;;6.57;4.70;;;9.50;99.90;;;;;;5013360;28;20055;-70
2022/05/25 00:36:47;;;;;;;6.53;4.80;;;9.40;99.90;;;;;;4974486;28;20613;-70
2022/05/25 00:39:13;;;;;;;5.60;4.82;;;9.50;99.90;;;;;;5012049;28;20090;-71
2022/05/25 00:41:39;;;;;;;6.30;5.00;;;9.40;99.90;;;;;;5005351;28;20042;-70
2022/05/25 00:44:06;;;;;;;6.07;4.82;;;9.50;99.90;;;;;;5013874;28;20046;-69
2022/05/25 00:46:34;;;;;;;6.07;4.97;;;9.50;99.90;;;;;;4997636;28;20099;-70
2022/05/25 00:49:15;;;;;;;7.43;5.10;;;9.40;99.90;;;;;;4967021;28;20114;-70
2022/05/25 00:52:04;;;;;;;6.38;4.50;;;9.40;99.90;;;;;;5013280;28;20047;-70
2022/05/25 00:54:42;;;;;;;5.70;4.72;;;9.40;99.90;;;;;;4983419;28;20129;-69
2022/05/25 00:57:15;;;;;;;5.43;4.30;;;9.40;99.90;;;;;;5015933;28;20076;-70
2022/05/25 00:59:50;;;;;;;7.00;4.60;;;9.40;99.90;;;;;;4999722;28;20053;-69
2022/05/25 01:02:16;;;;;;;8.82;5.38;;;9.30;99.90;;;;;;5015548;28;20073;-68
2022/05/25 01:04:42;;;;;;;5.32;4.40;;;9.30;99.90;;;;;;4999622;28;20054;-68
2022/05/25 01:07:26;;;;;;;5.63;4.72;;;9.20;99.90;;;;;;5012658;28;20440;-68
2022/05/25 01:10:13;;;;;;;5.20;4.40;;;9.10;99.90;;;;;;5013474;28;20091;-69
2022/05/25 01:12:50;;;;;;;;;;;9.00;99.90;;;;;;5016446;28;20046;-69
2022/05/25 01:15:27;;;;;;;5.82;4.68;;;8.90;99.90;;;;;;4992239;28;19926;-69
2022/05/25 01:17:57;;;;;;;5.82;4.85;;;8.80;99.90;;;;;;5000757;28;20054;-69
2022/05/25 01:20:41;;;;;;;6.82;5.13;;;8.80;99.90;;;;;;5015725;28;20172;-68
2022/05/25 01:23:27;;;;;;;6.85;5.18;;;8.80;99.90;;;;;;5014991;28;20050;-68
2022/05/25 01:26:13;;;;;;;5.63;4.93;;;8.80;99.90;;;;;;5015978;28;20046;-68
2022/05/25 01:29:04;;;;;;;6.47;4.70;;;8.80;99.90;;;;;;5007063;28;20050;-69
2022/05/25 01:31:55;;;;;;;6.72;5.35;;;8.90;99.90;;;;;;5000106;28;20134;-69
2022/05/25 01:34:45;;;;;;;5.95;5.10;;;8.90;99.90;;;;;;5015527;28;20420;-68
2022/05/25 01:37:26;;;;;;;6.88;5.10;;;8.90;99.90;;;;;;5015021;28;20118;-68
2022/05/25 01:40:00;;;;;;;6.43;5.40;;;8.90;99.90;;;;;;5015246;28;20050;-68
2022/05/25 01:42:41;;;;;;;7.57;5.40;;;8.90;99.90;;;;;;4988387;28;20046;-69
2022/05/25 01:45:08;;;;;;;8.32;5.70;;;8.90;99.90;;;;;;5014033;28;20054;-70
2022/05/25 01:47:37;;;;;;;7.40;5.32;;;8.90;99.90;;;;;;5014575;28;20074;-68
2022/05/25 01:50:12;;;;;;;8.60;5.70;;;8.90;99.90;;;;;;5011799;28;20414;-69
2022/05/25 01:52:51;;;;;;;8.05;6.07;;;8.90;99.90;;;;;;4987338;28;20149;-70
2022/05/25 01:55:28;;;;;;;7.55;5.68;;;8.90;99.90;;;;;;4993839;28;20055;-69
2022/05/25 01:57:59;;;;;;;7.53;6.43;;;9.00;99.90;;;;;;5011181;28;20416;-70
2022/05/25 02:00:48;;;;;;;9.73;6.60;;;9.00;99.90;;;;;;5012058;28;20050;-70
2022/05/25 02:06:31;;;;;;;7.93;5.95;;;9.10;99.90;;;;;;4991582;28;20050;-69
2022/05/25 02:09:07;;;;;;;8.50;6.38;;;9.10;99.90;;;;;;5014512;28;20054;-70
2022/05/25 02:11:38;;;;;;;9.88;6.60;;;9.10;99.90;;;;;;4999245;28;20058;-69
2022/05/25 02:14:28;;;;;;;9.52;6.38;;;9.10;99.90;;;;;;4999196;28;20058;-70
2022/05/25 02:17:32;;;;;;;8.85;6.15;;;9.10;99.90;;;;;;5000188;28;20093;-69
2022/05/25 02:20:11;;;;;;;9.98;6.63;;;9.00;99.90;;;;;;4988485;28;20058;-69
2022/05/25 02:22:45;;;;;;;8.80;6.57;;;9.00;99.90;;;;;;4984168;28;20058;-70
2022/05/25 02:25:42;;;;;;;8.65;6.70;;;9.00;99.90;;;;;;4991460;28;20057;-70
2022/05/25 02:28:40;;;;;;;9.25;6.65;;;9.00;99.90;;;;;;4981317;28;20051;-70
2022/05/25 02:31:11;;;;;;;9.73;6.40;;;9.00;99.90;;;;;;4990925;28;20093;-69
2022/05/25 02:33:42;;;;;;;9.13;6.53;;;9.00;99.90;;;;;;4982483;28;20072;-71
2022/05/25 02:36:09;;;;;;;8.88;6.78;;;9.00;99.90;;;;;;4995733;28;20047;-71
2022/05/25 02:38:37;;;;;;;9.88;6.65;;;9.10;99.90;;;;;;4992452;28;20046;-71
2022/05/25 02:41:24;;;;;;;11.85;7.50;;;9.10;99.90;;;;;;4993220;28;20130;-70
2022/05/25 02:43:50;;;;;;;;;;;9.20;99.90;;;;;;4976791;28;20054;-70
2022/05/25 02:46:15;;;;;;;10.03;6.73;;;9.20;99.90;;;;;;4998135;28;19921;-71
2022/05/25 02:48:41;;;;;;;11.20;7.47;;;9.20;99.90;;;;;;5013805;28;20426;-71
2022/05/25 02:51:07;;;;;;;11.50;8.18;;;9.30;99.90;;;;;;4970847;28;20047;-71
2022/05/25 02:53:34;;;;;;;9.50;7.10;;;9.30;99.90;;;;;;4997903;28;20374;-71
2022/05/25 02:56:01;;;;;;;11.32;7.45;;;9.30;99.90;;;;;;5014246;28;20539;-70
2022/05/25 02:58:27;;;;;;;9.57;7.18;;;9.30;99.90;;;;;;4999804;28;20577;-70
2022/05/25 03:00:54;;;;;;;10.02;7.20;;;9.30;99.90;;;;;;5018371;28;20053;-69
2022/05/25 03:03:20;;;;;;;9.57;6.47;;;9.20;99.90;;;;;;5018415;28;20410;-70
2022/05/25 03:05:46;;;;;;;10.52;7.20;;;9.30;99.90;;;;;;4985362;28;20054;-71
2022/05/25 03:08:11;;;;;;;10.00;7.35;;;9.20;99.90;;;;;;4985574;28;20082;-70
2022/05/25 03:10:37;;;;;;;10.27;7.03;;;9.20;99.90;;;;;;4999091;28;20050;-70
2022/05/25 03:13:07;;;;;;;11.43;8.68;;;9.10;99.90;;;;;;4995835;28;20105;-70
2022/05/25 03:15:33;;;;;;;11.50;8.30;;;9.10;99.90;;;;;;5017017;28;20066;-71
2022/05/25 03:17:58;;;;;;;13.93;9.07;;;9.10;99.90;;;;;;5017856;28;20057;-72
2022/05/25 03:20:24;;;;;;;9.77;7.70;;;9.20;99.90;;;;;;5002006;28;20350;-73
2022/05/25 03:22:50;;;;;;;12.63;9.52;;;9.20;99.90;;;;;;5017374;28;20057;-72
2022/05/25 03:25:16;;;;;;;11.73;8.40;;;9.20;99.90;;;;;;4985302;28;20050;-71
2022/05/25 03:27:44;;;;;;;11.00;8.10;;;9.20;99.90;;;;;;5002353;28;20098;-71
2022/05/25 03:30:11;;;;;;;12.55;8.85;;;9.20;99.90;;;;;;4997964;28;20051;-70
2022/05/25 03:32:37;;;;;;;12.77;9.25;;;9.20;99.90;;;;;;5014306;28;20073;-73
2022/05/25 03:35:03;;;;;;;13.23;8.85;;;9.10;99.90;;;;;;4980662;28;20668;-71
2022/05/25 03:37:29;;;;;;;12.30;9.32;;;9.20;99.90;;;;;;5017424;28;20039;-71
2022/05/25 03:39:55;;;;;;;14.30;9.10;;;9.10;99.90;;;;;;5017214;28;20516;-70
2022/05/25 03:42:22;;;;;;;15.30;9.25;;;9.10;99.90;;;;;;4986122;28;20066;-74
2022/05/25 03:44:48;;;;;;;13.68;9.20;;;9.10;99.90;;;;;;4996779;28;20102;-70
2022/05/25 03:47:15;;;;;;;13.35;9.32;;;9.10;99.90;;;;;;4986382;28;20035;-70
2022/05/25 03:49:41;;;;;;;12.82;9.68;;;9.10;99.90;;;;;;5016204;28;20034;-72
2022/05/25 03:52:07;;;;;;;10.93;8.27;;;9.10;99.90;;;;;;5000814;28;20130;-71
2022/05/25 03:54:35;;;;;;;13.48;9.15;;;8.00;99.90;;;;;;5017186;28;20458;-71
2022/05/25 03:57:01;;;;;;;13.85;9.32;;;9.10;99.90;;;;;;5000616;28;20042;-72
2022/05/25 03:59:26;;;;;;;14.25;9.18;;;9.10;99.90;;;;;;5001253;28;20115;-75
2022/05/25 04:01:52;;;;;;;13.80;9.30;;;9.20;99.90;;;;;;4974997;28;20418;-72
2022/05/25 04:04:18;;;;;;;13.52;9.27;;;9.20;99.90;;;;;;5017366;28;20042;-74
2022/05/25 04:06:44;;;;;;;13.43;8.73;;;9.30;99.90;;;;;;5015651;28;20050;-71
2022/05/25 04:09:10;;;;;;;17.73;10.10;;;9.20;99.90;;;;;;4998195;28;20081;-72
2022/05/25 04:11:37;;;;;;;14.45;10.82;;;9.20;99.90;;;;;;4983407;28;20529;-74
2022/05/25 04:14:04;;;;;;;12.27;9.23;;;9.30;99.90;;;;;;4994947;28;20414;-72
2022/05/25 04:16:31;;;;;;;16.00;10.77;;;9.30;99.90;;;;;;5009581;28;20074;-72
2022/05/25 04:18:58;;;;;;;14.20;10.50;;;9.30;99.90;;;;;;4993461;28;20066;-71
2022/05/25 04:21:24;;;;;;;14.68;10.10;;;9.40;99.90;;;;;;4990315;28;20051;-75
2022/05/25 04:23:49;;;;;;;16.33;10.35;;;9.40;99.90;;;;;;4988691;28;20076;-75
2022/05/25 04:26:16;;;;;;;15.95;10.60;;;9.50;99.90;;;;;;4997310;28;20043;-74
2022/05/25 04:28:41;;;;;;;14.10;10.52;;;9.50;99.90;;;;;;4988349;28;20046;-75
2022/05/25 04:31:07;;;;;;;14.23;10.48;;;9.50;99.90;;;;;;4967704;28;20065;-74
2022/05/25 04:33:35;;;;;;;16.13;11.60;;;9.60;99.90;;;;;;5000576;28;20042;-75
2022/05/25 04:36:01;;;;;;;15.90;10.05;;;9.60;99.90;;;;;;4980836;28;20050;-75
2022/05/25 04:38:26;;;;;;;19.08;11.10;;;9.60;99.90;;;;;;4978099;28;20070;-74
2022/05/25 04:40:52;;;;;;;14.93;10.07;;;9.70;99.90;;;;;;4998760;28;20552;-72
2022/05/25 04:43:23;;;;;;;15.32;10.25;;;9.70;99.90;;;;;;4978656;28;20051;-72
2022/05/25 04:45:51;;;;;;;15.93;10.25;;;9.80;99.90;;;;;;4996289;28;20058;-72
2022/05/25 04:48:21;;;;;;;15.55;10.90;;;9.80;99.90;;;;;;4999424;28;20046;-73
2022/05/25 04:50:47;;;;;;;15.80;11.00;;;9.90;99.90;;;;;;4994477;28;20043;-71
2022/05/25 04:53:16;;;;;;;15.93;10.13;;;10.00;99.90;;;;;;4995079;28;20073;-72
2022/05/25 04:58:28;;;;;;;15.02;11.65;;;10.10;99.90;;;;;;4987660;28;20050;-73
2022/05/25 05:00:54;;;;;;;16.20;10.30;;;10.10;99.90;;;;;;4999307;28;20049;-71
2022/05/25 05:03:23;;;;;;;16.02;10.88;;;10.20;99.90;;;;;;4967165;28;20110;-73
2022/05/25 05:05:50;;;;;;;16.38;10.70;;;10.30;99.90;;;;;;4988526;28;20392;-74
2022/05/25 05:08:16;;;;;;;18.80;10.98;;;10.30;99.90;;;;;;4995901;28;20617;-72
2022/05/25 05:10:42;;;;;;;16.83;10.85;;;10.40;99.90;;;;;;4964982;28;20126;-73
2022/05/25 05:13:08;;;;;;;14.48;10.43;;;10.50;99.90;;;;;;4990399;28;20547;-74
2022/05/25 05:15:35;;;;;;;15.18;10.65;;;10.50;99.90;;;;;;4998366;28;20066;-73
2022/05/25 05:18:02;;;;;;;15.25;9.63;;;10.60;99.90;;;;;;4999047;28;20111;-74
2022/05/25 05:20:29;;;;;;;14.68;10.18;;;10.70;99.90;;;;;;4983212;28;20050;-72
2022/05/25 05:22:55;;;;;;;14.43;10.38;;;10.80;99.90;;;;;;4992862;28;20048;-73
2022/05/25 05:25:21;;;;;;;15.57;10.30;;;10.80;99.90;;;;;;4983338;28;20082;-72
2022/05/25 05:27:46;;;;;;;15.07;10.75;;;10.90;99.90;;;;;;4987794;28;20468;-74
2022/05/25 05:30:17;;;;;;;15.07;9.65;;;11.00;99.90;;;;;;5000735;28;20054;-72
2022/05/25 05:32:43;;;;;;;13.40;9.45;;;11.10;99.90;;;;;;4998916;28;20042;-72
2022/05/25 05:35:09;;;;;;;14.90;10.40;;;11.10;99.90;;;;;;5015014;28;20057;-72
2022/05/25 05:37:46;;;;;;;14.60;9.40;;;11.30;99.90;;;;;;4998568;28;20106;-74
2022/05/25 05:40:14;;;;;;;14.02;9.32;;;11.30;99.90;;;;;;4998528;28;20042;-75
2022/05/25 05:42:42;;;;;;;13.00;8.75;;;11.40;99.90;;;;;;4995720;28;20047;-72
2022/05/25 05:45:18;;;;;;;13.10;8.75;;;11.50;99.90;;;;;;4994690;28;20049;-73
2022/05/25 05:47:51;;;;;;;12.23;9.48;;;11.50;99.90;;;;;;4978461;28;20042;-74
2022/05/25 05:50:20;;;;;;;12.57;9.20;;;11.60;99.90;;;;;;4982288;28;20564;-73
2022/05/25 05:52:47;;;;;;;12.52;8.65;;;11.70;99.90;;;;;;4997814;28;20065;-74
2022/05/25 05:55:13;;;;;;;14.95;9.05;;;11.70;99.90;;;;;;5015491;28;20054;-72
2022/05/25 05:57:39;;;;;;;13.85;10.02;;;11.80;99.90;;;;;;5014773;28;20050;-76
2022/05/25 06:00:07;;;;;;;12.43;8.93;;;11.90;99.90;;;;;;4982319;28;20050;-73
2022/05/25 06:02:32;;;;;;;15.43;9.60;;;12.00;99.90;;;;;;5014652;28;20072;-72
2022/05/25 06:04:58;;;;;;;13.13;9.20;;;12.00;99.90;;;;;;5014560;28;20046;-72
2022/05/25 06:07:24;;;;;;;14.43;8.70;;;12.10;99.90;;;;;;4979168;28;20030;-75
2022/05/25 06:09:49;;;;;;;14.80;9.75;;;12.10;99.90;;;;;;4981788;28;20138;-73
2022/05/25 06:12:15;;;;;;;14.32;8.98;;;12.20;99.90;;;;;;5014818;28;20100;-74
2022/05/25 06:14:41;;;;;;;11.65;8.57;;;12.20;99.90;;;;;;4997555;28;20054;-73
2022/05/25 06:19:51;;;;;;;12.75;8.85;;;12.30;99.90;;;;;;4990736;28;20050;-75
2022/05/25 06:22:18;;;;;;;13.88;9.35;;;12.40;99.90;;;;;;5011246;28;20051;-75
2022/05/25 06:24:50;;;;;;;13.90;9.07;;;12.40;99.90;;;;;;4975105;28;20038;-78
2022/05/25 06:27:17;;;;;;;15.23;9.73;;;12.50;99.90;;;;;;4988800;28;20489;-75
2022/05/25 06:29:44;;;;;;;15.70;10.13;;;12.60;99.90;;;;;;4998158;28;20065;-76
2022/05/25 06:32:12;;;;;;;15.15;8.82;;;12.70;99.90;;;;;;4966893;28;20058;-76
2022/05/25 06:34:40;;;;;;;13.45;8.68;;;12.80;99.90;;;;;;5012194;28;20039;-73
2022/05/25 06:37:07;;;;;;;14.95;9.38;;;12.80;99.90;;;;;;5014793;28;20054;-73
2022/05/25 06:39:37;;;;;;;15.57;8.77;;;12.80;99.90;;;;;;4998080;28;20047;-74
2022/05/25 06:42:04;;;;;;;15.95;9.38;;;12.90;99.90;;;;;;4974940;28;20051;-76
2022/05/25 06:44:30;;;;;;;16.55;9.32;;;13.00;99.90;;;;;;4982374;28;20873;-75
2022/05/25 06:46:56;;;;;;;11.38;8.75;;;13.00;99.90;;;;;;5018009;28;20050;-74
2022/05/25 06:49:22;;;;;;;11.48;8.35;;;13.10;99.90;;;;;;5017482;28;20049;-75
2022/05/25 06:51:47;;;;;;;12.93;9.05;;;13.10;99.90;;;;;;4990215;28;20517;-73
2022/05/25 06:54:15;;;;;;;15.77;8.70;;;13.10;99.90;;;;;;5017535;28;20046;-73
2022/05/25 06:56:42;;;;;;;11.95;8.95;;;13.20;99.90;;;;;;5017701;28;20141;-72
2022/05/25 06:59:09;;;;;;;12.07;9.13;;;13.20;99.90;;;;;;4988733;28;20452;-72
2022/05/25 07:01:36;;;;;;;11.35;8.10;;;13.10;99.90;;;;;;4992972;28;20049;-74
2022/05/25 07:04:02;;;;;;;10.45;7.80;;;13.20;99.90;;;;;;5018534;28;20057;-74
2022/05/25 07:06:28;;;;;;;11.25;8.55;;;13.30;99.90;;;;;;5000721;28;20049;-73
2022/05/25 07:08:54;;;;;;;14.07;9.30;;;13.40;99.90;;;;;;4981484;28;20057;-71
2022/05/25 07:11:23;;;;;;;10.82;8.68;;;13.50;99.90;;;;;;5005244;28;20046;-73
2022/05/25 07:13:49;;;;;;;13.50;7.80;;;13.50;99.90;;;;;;4972725;28;20047;-72
2022/05/25 07:16:18;;;;;;;10.77;7.97;;;13.60;99.90;;;;;;4995576;28;20455;-73
2022/05/25 07:18:45;;;;;;;10.63;7.78;;;13.70;99.90;;;;;;5016766;28;20047;-74
2022/05/25 07:21:21;;;;;;;11.48;7.82;;;13.80;99.90;;;;;;5000520;28;20054;-73
2022/05/25 07:23:48;;;;;;;;;;;13.90;99.90;;;;;;4984123;28;20061;-73
2022/05/25 07:26:15;;;;;;;14.45;8.63;;;14.00;99.90;;;;;;4985138;28;20293;-74
2022/05/25 07:28:41;;;;;;;10.02;7.07;;;14.10;99.90;;;;;;4980805;28;20495;-70
2022/05/25 07:31:08;;;;;;;11.75;5.85;;;14.30;99.90;;;;;;4983445;28;20039;-75
2022/05/25 07:33:35;;;;;;;7.25;5.65;;;14.30;99.90;;;;;;5013973;28;20085;-75
2022/05/25 07:36:02;;;;;;;6.15;4.97;;;14.30;99.90;;;;;;4990020;28;20055;-75
2022/05/25 07:38:29;;;;;;;6.90;5.30;;;14.30;99.90;;;;;;5013201;28;20047;-77
2022/05/25 07:40:56;;;;;;;8.73;6.40;;;14.30;99.90;;;;;;4978438;28;20144;-71
2022/05/25 07:43:25;;;;;;;6.85;4.82;;;14.40;99.90;;;;;;5013398;28;20050;-72
2022/05/25 07:45:50;;;;;;;6.47;4.55;;;14.40;99.90;;;;;;4994761;28;20117;-73
2022/05/25 07:48:16;;;;;;;8.32;5.38;;;14.40;99.90;;;;;;4999444;28;20081;-73
2022/05/25 07:50:43;;;;;;;5.70;4.00;;;14.50;99.90;;;;;;4987439;28;20042;-71
2022/05/25 07:55:59;;;;;;;6.13;4.05;;;14.50;99.90;;;;;;5003821;28;20464;-74
2022/05/25 07:58:25;;;;;;;5.60;3.97;;;14.60;99.90;;;;;;4999470;28;20101;-76
2022/05/25 08:00:53;;;;;;;4.78;3.85;;;14.60;99.90;;;;;;4986393;28;20674;-70
2022/05/25 08:06:05;;;;;;;6.93;3.85;;;15.00;99.90;;;;;;4991264;28;20046;-72
2022/05/25 08:08:31;;;;;;;5.25;3.75;;;14.90;99.90;;;;;;4996730;28;20055;-72
2022/05/25 08:11:08;;;;;;;5.53;3.53;;;15.10;99.90;;;;;;4984800;28;20058;-71
2022/05/25 08:13:36;;;;;;;5.07;3.42;;;15.10;99.90;;;;;;4993959;28;20153;-71
2022/05/25 08:16:03;;;;;;;7.70;3.90;;;15.10;99.90;;;;;;4995832;28;20058;-72
2022/05/25 08:18:29;;;;;;;7.32;4.30;;;15.10;99.90;;;;;;4993378;28;20043;-75
2022/05/25 08:20:54;;;;;;;6.05;4.10;;;15.00;99.90;;;;;;4977994;28;20085;-71
2022/05/25 08:23:20;;;;;;;5.60;3.53;;;14.90;99.90;;;;;;4984272;28;20058;-70
2022/05/25 08:25:47;;;;;;;5.03;3.92;;;14.90;99.90;;;;;;4980510;28;20126;-74
2022/05/25 08:28:12;;;;;;;4.55;3.50;;;14.90;99.90;;;;;;4996169;28;20754;-71
2022/05/25 08:30:41;;;;;;;6.20;4.60;;;15.00;99.90;;;;;;4987390;28;20114;-70
2022/05/25 08:33:07;;;;;;;5.57;4.28;;;15.10;99.90;;;;;;4984564;28;20034;-70
2022/05/25 08:35:33;;;;;;;6.43;4.40;;;15.20;99.90;;;;;;5012677;28;20447;-72
2022/05/25 08:37:59;;;;;;;6.03;4.32;;;15.20;99.90;;;;;;5013129;28;20054;-70
2022/05/25 08:40:27;;;;;;;5.65;3.97;;;15.20;99.90;;;;;;4983832;28;20372;-71
2022/05/25 08:43:07;;;;;;;5.78;4.18;;;15.10;99.90;;;;;;4978079;28;20038;-70
2022/05/25 08:45:41;;;;;;;6.43;4.20;;;15.10;99.90;;;;;;5011402;28;20047;-73
2022/05/25 08:48:09;;;;;;;6.35;5.03;;;15.00;99.90;;;;;;4984079;28;20524;-70
2022/05/25 08:50:37;;;;;;;7.22;4.80;;;15.00;99.90;;;;;;4980007;28;20050;-73
2022/05/25 08:53:04;;;;;;;4.57;3.65;;;15.10;99.90;;;;;;5011924;28;20039;-76
2022/05/25 08:55:56;;;;;;;4.57;3.17;;;15.20;99.90;;;;;;5012146;28;20038;-72
2022/05/25 08:58:27;;;;;;;4.97;3.63;;;15.20;99.90;;;;;;5003937;28;20061;-74
2022/05/25 09:00:54;;;;;;;5.20;3.80;;;15.30;99.90;;;;;;4979478;28;20038;-71
2022/05/25 09:03:50;;;;;;;5.78;3.88;;;15.50;99.90;;;;;;4980990;28;20051;-70
2022/05/25 09:06:33;;;;;;;5.32;3.75;;;15.60;99.90;;;;;;4995184;28;20034;-71
2022/05/25 09:09:17;;;;;;;5.55;3.95;;;15.90;99.90;;;;;;4979368;28;20065;-71
2022/05/25 09:11:51;;;;;;;5.93;4.07;;;15.80;99.90;;;;;;4992007;28;20054;-72
2022/05/25 09:14:34;;;;;;;5.82;4.40;;;15.70;99.90;;;;;;4985149;28;20100;-73
2022/05/25 09:17:11;;;;;;;4.68;3.35;;;15.70;99.90;;;;;;5007830;28;20094;-71
2022/05/25 09:19:41;;;;;;;5.15;3.15;;;15.60;99.90;;;;;;4978734;28;20102;-70
2022/05/25 09:22:10;;;;;;;5.05;3.70;;;15.60;99.90;;;;;;4988922;28;20054;-70
2022/05/25 09:24:36;;;;;;;5.88;4.47;;;15.60;99.90;;;;;;5011217;28;20046;-73
2022/05/25 09:27:05;;;;;;;5.28;4.05;;;15.60;99.90;;;;;;4988794;28;20105;-74
2022/05/25 09:29:31;;;;;;;4.40;3.80;;;15.60;99.90;;;;;;4998643;28;20106;-71
2022/05/25 09:32:28;;;;;;;5.32;3.50;;;15.70;99.90;;;;;;4947911;28;20051;-74
2022/05/25 09:35:06;;;;;;;5.47;4.30;;;15.80;99.90;;;;;;4989274;28;20072;-72
2022/05/25 09:37:42;;;;;;;4.60;4.10;;;15.80;99.90;;;;;;4995807;28;20113;-72
2022/05/25 09:40:38;;;;;;;4.03;3.63;;;15.90;99.90;;;;;;4994545;28;20057;-72
2022/05/25 09:43:09;;;;;;;4.97;4.35;;;15.90;99.90;;;;;;5010657;28;20475;-72
2022/05/25 09:45:48;;;;;;;5.80;4.03;;;16.00;99.90;;;;;;4981594;28;20043;-70
2022/05/25 09:48:14;;;;;;;6.70;4.20;;;16.00;99.90;;;;;;4999595;28;20055;-71
2022/05/25 09:50:48;;;;;;;4.55;3.97;;;15.90;99.90;;;;;;5004537;28;20069;-71
2022/05/25 09:53:17;;;;;;;4.88;4.28;;;15.90;99.90;;;;;;4978245;28;20065;-74
2022/05/25 09:55:50;;;;;;;4.35;3.95;;;16.00;99.90;;;;;;4981764;28;20045;-71
2022/05/25 09:58:36;;;;;;;6.43;4.45;;;16.10;99.90;;;;;;4990668;28;20057;-73
2022/05/25 10:01:06;;;;;;;;;;;16.10;99.90;;;;;;4994005;28;20050;-72
2022/05/25 10:03:42;;;;;;;5.63;4.10;;;16.20;99.90;;;;;;4961597;29;19933;-73
2022/05/25 10:06:45;;;;;;;5.72;5.13;;;16.30;99.90;;;;;;5003483;28;20046;-71
2022/05/25 10:09:24;;;;;;;5.60;4.90;;;16.50;99.90;;;;;;4993361;28;20401;-70
2022/05/25 10:11:54;;;;;;;4.85;4.35;;;16.40;99.90;;;;;;4978430;28;20133;-70
2022/05/25 10:14:35;;;;;;;5.10;4.30;;;16.30;99.90;;;;;;4997503;28;20058;-71
2022/05/25 10:17:16;;;;;;;5.45;3.95;;;16.40;99.90;;;;;;4987379;28;20058;-75
2022/05/25 10:19:50;;;;;;;5.22;3.70;;;16.50;99.90;;;;;;4977864;28;20046;-71
2022/05/25 10:22:44;;;;;;;5.78;4.03;;;16.60;99.90;;;;;;4993908;28;20054;-71
2022/05/25 10:25:22;;;;;;;4.97;4.03;;;16.70;99.90;;;;;;4980153;28;20034;-71
2022/05/25 10:27:49;;;;;;;4.75;4.13;;;16.60;99.90;;;;;;5008453;28;20071;-71
2022/05/25 10:38:43;;;;;;;4.75;4.05;;;16.20;99.90;;;;;;4980288;28;20038;-70
2022/05/25 10:44:20;;;;;;;4.68;3.70;;;16.30;99.90;;;;;;4982632;28;20058;-73
2022/05/25 10:46:55;;;;;;;5.18;3.40;;;16.50;99.90;;;;;;4977951;28;20299;-73
2022/05/25 10:49:36;;;;;;;4.97;3.78;;;16.70;99.90;;;;;;4980046;28;20047;-73
2022/05/25 10:52:07;;;;;;;4.50;3.97;;;16.80;99.90;;;;;;5007224;28;20081;-72
2022/05/25 10:54:47;;;;;;;5.53;3.22;;;16.70;99.90;;;;;;4980321;28;20054;-70
2022/05/25 10:57:34;;;;;;;4.97;3.63;;;16.40;99.90;;;;;;5001675;28;20101;-72
2022/05/25 11:00:10;;;;;;;3.95;3.28;;;16.30;99.90;;;;;;4994024;28;20057;-71
2022/05/25 11:02:36;;;;;;;;;;;16.10;99.90;;;;;;5003605;28;20051;-69
2022/05/25 11:05:27;;;;;;;4.63;2.90;;;16.00;99.90;;;;;;5010760;28;19926;-70
2022/05/25 11:08:01;;;;;;;3.47;2.80;;;15.90;99.90;;;;;;5009485;28;20106;-72
2022/05/25 11:10:49;;;;;;;3.83;2.90;;;15.80;99.90;;;;;;4998203;28;20514;-71
2022/05/25 11:13:46;;;;;;;4.18;3.28;;;15.80;99.90;;;;;;5001053;28;20125;-75
2022/05/25 11:16:29;;;;;;;;;;;15.70;99.90;;;;;;4995780;28;20412;-70
2022/05/25 11:19:16;;;;;;;3.78;3.17;;;15.70;99.90;;;;;;4976589;28;20452;-73
2022/05/25 11:22:00;;;;;;;4.05;3.03;;;15.80;99.90;;;;;;4994704;28;20054;-73
2022/05/25 11:25:03;;;;;;;3.58;3.28;;;15.90;99.90;;;;;;4994116;28;20155;-74
2022/05/25 11:28:00;;;;;;;3.85;3.40;;;16.10;99.90;;;;;;4997749;28;20071;-73
2022/05/25 11:30:45;;;;;;;5.88;3.40;;;16.30;99.90;;;;;;4985005;28;20117;-70
2022/05/25 11:33:32;;;;;;;4.57;4.18;;;16.60;99.90;;;;;;5013675;28;20058;-75
2022/05/25 11:36:14;;;;;;;6.57;4.07;;;16.80;99.90;;;;;;5013540;28;20434;-72
2022/05/25 11:39:03;;;;;;;5.30;4.80;;;17.00;99.90;;;;;;5016808;28;20062;-70
2022/05/25 11:41:42;;;;;;;6.10;4.78;;;17.10;99.90;;;;;;4970041;28;20058;-70
2022/05/25 11:44:41;;;;;;;5.35;4.30;;;17.10;99.90;;;;;;4984169;28;20042;-73
2022/05/25 11:47:28;;;;;;;6.57;4.60;;;17.10;99.90;;;;;;4981752;28;20055;-70
2022/05/25 11:50:21;;;;;;;5.40;4.90;;;17.00;99.90;;;;;;5010365;28;20055;-71
2022/05/25 11:53:04;;;;;;;9.15;5.18;;;17.10;99.90;;;;;;5010949;28;20050;-73
2022/05/25 11:55:44;;;;;;;5.93;5.32;;;17.20;99.90;;;;;;4980515;28;20058;-72
2022/05/25 11:58:18;;;;;;;5.40;4.85;;;17.00;99.90;;;;;;4996758;28;20057;-71
2022/05/25 12:00:56;;;;;;;5.88;4.90;;;17.00;99.90;;;;;;4986700;28;20050;-73
2022/05/25 12:03:46;;;;;;;5.97;5.40;;;17.00;99.90;;;;;;5001232;28;20054;-70
2022/05/25 12:06:18;;;;;;;6.68;5.03;;;17.00;99.90;;;;;;4970595;28;20098;-73
2022/05/25 12:08:44;;;;;;;4.90;4.40;;;17.00;99.90;;;;;;5002214;28;20062;-72
2022/05/25 12:11:17;;;;;;;5.75;4.80;;;17.00;99.90;;;;;;4995491;28;20054;-73
2022/05/25 12:13:54;;;;;;;5.85;5.00;;;17.00;99.90;;;;;;4982251;28;20047;-72
2022/05/25 12:16:34;;;;;;;5.80;3.92;;;16.90;99.90;;;;;;5012441;28;20515;-73
2022/05/25 12:19:05;;;;;;;4.93;4.13;;;16.80;99.90;;;;;;4987969;28;20094;-72
2022/05/25 12:21:41;;;;;;;6.25;3.90;;;16.70;99.90;;;;;;5006503;28;20054;-69
2022/05/25 12:24:15;;;;;;;6.97;4.53;;;16.50;99.90;;;;;;4982918;28;20047;-74
2022/05/25 12:26:42;;;;;;;5.47;4.25;;;16.40;99.90;;;;;;4976625;28;20054;-74
2022/05/25 12:29:14;;;;;;;8.25;4.05;;;16.20;99.90;;;;;;4967313;28;20078;-74
2022/05/25 12:31:43;;;;;;;4.80;4.15;;;16.10;99.90;;;;;;5000673;28;20039;-72
2022/05/25 12:34:19;;;;;;;5.72;3.70;;;16.00;99.90;;;;;;4989608;28;20042;-73
2022/05/25 12:36:45;;;;;;;;;;;16.00;99.90;;;;;;4979882;28;20050;-72
2022/05/25 12:39:11;;;;;;;7.97;4.93;;;16.10;99.90;;;;;;5011574;28;19932;-72
2022/05/25 12:41:39;;;;;;;6.50;5.20;;;15.90;99.90;;;;;;4980182;28;20105;-71
2022/05/25 12:48:30;;;;;;;8.75;4.35;;;15.90;99.90;;;;;;4979773;28;20054;-72
2022/05/25 12:49:46;;;;;;;5.90;3.97;;;15.80;99.90;;;;;;5012164;28;20106;-71
2022/05/25 12:52:41;;;;;;;5.97;4.00;;;15.90;99.90;;;;;;5011960;28;20991;-73
2022/05/25 12:55:17;;;;;;;6.63;4.47;;;16.10;99.90;;;;;;4973048;28;20529;-73
2022/05/25 12:57:50;;;;;;;5.75;3.90;;;16.30;99.90;;;;;;4979594;28;20058;-72
2022/05/25 13:00:59;;;;;;;5.85;3.97;;;16.50;99.90;;;;;;4983035;28;20034;-74
2022/05/25 13:03:39;;;;;;;5.28;4.47;;;16.70;99.90;;;;;;4967375;28;20051;-75
2022/05/25 13:06:06;;;;;;;6.45;4.60;;;16.90;99.90;;;;;;4978964;28;20106;-72
2022/05/25 13:08:47;;;;;;;6.43;4.18;;;16.90;99.90;;;;;;5012116;28;20047;-78
2022/05/25 13:11:28;;;;;;;5.20;4.30;;;16.80;99.90;;;;;;5010796;28;20051;-71
2022/05/25 13:13:54;;;;;;;5.20;4.00;;;16.80;99.90;;;;;;5012294;28;20067;-73
2022/05/25 13:16:42;;;;;;;4.57;3.58;;;16.80;99.90;;;;;;4991861;28;20047;-76
2022/05/25 13:19:34;;;;;;;4.93;3.35;;;16.90;99.90;;;;;;4995668;28;20491;-74
2022/05/25 13:22:02;;;;;;;4.78;3.00;;;16.90;99.90;;;;;;4988720;28;20117;-74
2022/05/25 13:24:50;;;;;;;5.57;2.83;;;16.90;99.90;;;;;;4995536;28;20127;-76
2022/05/25 13:27:16;;;;;;;3.45;2.35;;;17.00;99.90;;;;;;4962659;28;20055;-74
2022/05/25 13:30:02;;;;;;;4.20;2.75;;;17.20;99.90;;;;;;5012259;28;20057;-73
2022/05/25 13:32:50;;;;;;;4.97;2.33;;;17.20;99.90;;;;;;4995387;28;20395;-75
2022/05/25 13:35:18;;;;;;;3.45;2.45;;;17.10;99.90;;;;;;4983623;28;20054;-72
2022/05/25 13:37:50;;;;;;;3.33;2.00;;;17.10;99.90;;;;;;5011170;28;20536;-74
2022/05/25 13:40:15;;;;;;;2.80;1.30;;;17.30;99.90;;;;;;4977014;28;20035;-76
2022/05/25 13:42:46;;;;;;;2.30;1.20;;;17.40;99.90;;;;;;5007025;28;20308;-78
2022/05/25 13:45:28;;;;;;;3.20;1.20;;;17.40;99.90;;;;;;4995973;28;20039;-73
2022/05/25 13:47:57;;;;;;;1.95;1.05;;;17.40;99.90;;;;;;4970703;28;20125;-70